createdAt,value
2019-04-07T00:01:00.824Z,47.02
2019-04-07T00:03:08.048Z,46.81
2019-04-07T00:05:16.158Z,46.83
2019-04-07T00:07:24.184Z,47.03
2019-04-07T00:09:32.071Z,46.99
2019-04-07T00:11:38.997Z,46.95
2019-04-07T00:13:46.084Z,47.18
2019-04-07T00:15:55.836Z,47.17
2019-04-07T00:18:02.589Z,47.14
2019-04-07T00:20:09.808Z,47.28
2019-04-07T00:22:17.016Z,47.15
2019-04-07T00:24:23.920Z,47.11
2019-04-07T00:26:31.153Z,47.21
2019-04-07T00:28:38.019Z,47.37
2019-04-07T00:30:46.001Z,47.33
2019-04-07T00:32:52.783Z,47.41
2019-04-07T00:34:59.957Z,47.56
2019-04-07T00:37:07.913Z,47.58
2019-04-07T00:39:14.844Z,47.57
2019-04-07T00:41:22.123Z,47.48
2019-04-07T00:43:29.231Z,47.63
2019-04-07T00:45:36.152Z,47.68
2019-04-07T00:47:42.959Z,47.83
2019-04-07T00:49:50.136Z,47.90
2019-04-07T00:51:57.530Z,48.03
2019-04-07T00:54:05.068Z,48.04
2019-04-07T00:56:13.146Z,48.06
2019-04-07T00:58:21.364Z,48.08
2019-04-07T01:00:29.940Z,48.01
2019-04-07T01:02:37.541Z,48.27
2019-04-07T01:04:44.622Z,48.27
2019-04-07T01:06:53.738Z,48.45
2019-04-07T01:09:01.104Z,48.33
2019-04-07T01:11:09.821Z,48.47
2019-04-07T01:13:16.759Z,48.52
2019-04-07T01:15:24.110Z,48.63
2019-04-07T01:17:31.134Z,48.69
2019-04-07T01:19:40.701Z,48.79
2019-04-07T01:21:48.633Z,48.74
2019-04-07T01:23:56.931Z,48.87
2019-04-07T01:26:03.714Z,48.96
2019-04-07T01:28:11.004Z,48.95
2019-04-07T01:30:18.359Z,48.83
2019-04-07T01:32:25.706Z,48.95
2019-04-07T01:34:32.528Z,48.93
2019-04-07T01:36:39.300Z,49.06
2019-04-07T01:38:46.105Z,49.18
2019-04-07T01:40:57.388Z,49.32
2019-04-07T01:43:09.164Z,49.45
2019-04-07T01:45:24.782Z,49.67
2019-04-07T01:47:33.153Z,49.73
2019-04-07T01:49:47.650Z,49.88
2019-04-07T01:52:14.268Z,49.90
2019-04-07T01:54:24.958Z,49.80
2019-04-07T01:56:32.718Z,49.96
2019-04-07T01:58:41.594Z,50.02
2019-04-07T02:00:48.406Z,50.13
2019-04-07T02:03:12.878Z,50.12
2019-04-07T02:05:34.307Z,50.03
2019-04-07T02:07:44.581Z,49.93
2019-04-07T02:09:58.711Z,49.96
2019-04-07T02:12:18.106Z,50.05
2019-04-07T02:14:32.426Z,50.27
2019-04-07T02:16:51.265Z,50.32
2019-04-07T02:19:13.250Z,50.21
2019-04-07T02:21:29.603Z,50.25
2019-04-07T02:23:38.186Z,50.31
2019-04-07T02:25:46.911Z,50.34
2019-04-07T02:27:58.430Z,50.37
2019-04-07T02:30:14.511Z,50.45
2019-04-07T02:32:32.933Z,50.43
2019-04-07T02:34:57.480Z,50.60
2019-04-07T02:37:06.632Z,50.53
2019-04-07T02:39:18.033Z,50.75
2019-04-07T02:41:38.798Z,50.85
2019-04-07T02:43:51.279Z,50.68
2019-04-07T02:46:02.633Z,50.82
2019-04-07T02:48:24.186Z,50.75
2019-04-07T02:50:36.684Z,50.61
2019-04-07T02:52:54.775Z,50.82
2019-04-07T02:55:04.719Z,50.78
2019-04-07T02:57:22.221Z,50.70
2019-04-07T02:59:31.194Z,50.92
2019-04-07T03:01:38.795Z,50.90
2019-04-07T03:04:03.258Z,50.87
2019-04-07T03:06:10.294Z,50.79
2019-04-07T03:08:35.650Z,50.79
2019-04-07T03:10:57.635Z,50.96
2019-04-07T03:13:06.200Z,50.75
2019-04-07T03:15:16.133Z,50.84
2019-04-07T03:17:25.643Z,50.72
2019-04-07T03:19:40.270Z,50.87
2019-04-07T03:22:06.883Z,50.98
2019-04-07T03:24:26.517Z,50.73
2019-04-07T03:26:51.569Z,50.83
2019-04-07T03:29:03.699Z,50.75
2019-04-07T03:31:29.736Z,50.74
2019-04-07T03:33:45.435Z,50.87
2019-04-07T03:36:01.698Z,50.85
2019-04-07T03:38:08.624Z,50.84
2019-04-07T03:40:18.247Z,50.95
2019-04-07T03:42:32.825Z,51.03
2019-04-07T03:44:47.608Z,51.24
2019-04-07T03:46:59.877Z,51.37
2019-04-07T03:49:16.920Z,51.41
2019-04-07T03:51:25.683Z,51.66
2019-04-07T03:53:37.555Z,52.01
2019-04-07T03:55:49.469Z,51.95
2019-04-07T03:58:12.105Z,52.04
2019-04-07T04:01:13.609Z,52.11
2019-04-07T04:03:22.777Z,52.15
2019-04-07T04:05:34.292Z,52.31
2019-04-07T04:07:49.433Z,52.61
2019-04-07T04:10:14.152Z,52.54
2019-04-07T04:12:31.798Z,52.66
2019-04-07T04:14:59.857Z,52.90
2019-04-07T04:17:06.925Z,53.50
2019-04-07T04:19:14.457Z,53.57
2019-04-07T04:21:22.074Z,53.77
2019-04-07T04:23:30.283Z,54.02
2019-04-07T04:25:37.487Z,54.21
2019-04-07T04:27:44.692Z,54.47
2019-04-07T04:29:52.440Z,54.67
2019-04-07T04:31:59.873Z,55.17
2019-04-07T04:34:06.717Z,55.49
2019-04-07T04:36:13.587Z,56.37
2019-04-07T04:38:20.447Z,57.13
2019-04-07T04:40:28.082Z,58.33
2019-04-07T04:42:35.831Z,59.73
2019-04-07T04:44:44.207Z,60.39
2019-04-07T04:46:51.232Z,60.96
2019-04-07T04:48:58.900Z,61.88
2019-04-07T04:51:06.660Z,62.52
2019-04-07T04:53:13.643Z,63.00
2019-04-07T04:55:20.403Z,63.70
2019-04-07T04:57:27.191Z,63.90
2019-04-07T04:59:34.170Z,64.62
2019-04-07T05:01:40.931Z,65.65
2019-04-07T05:03:47.598Z,65.16
2019-04-07T05:05:54.584Z,65.61
2019-04-07T05:08:04.099Z,66.00
2019-04-07T05:10:10.349Z,66.37
2019-04-07T05:12:17.567Z,66.37
2019-04-07T05:14:25.764Z,66.67
2019-04-07T05:16:33.217Z,67.04
2019-04-07T05:18:41.709Z,67.44
2019-04-07T05:20:48.741Z,67.66
2019-04-07T05:22:55.499Z,67.46
2019-04-07T05:25:02.411Z,67.10
2019-04-07T05:27:09.722Z,67.61
2019-04-07T05:29:17.035Z,68.47
2019-04-07T05:31:23.714Z,68.10
2019-04-07T05:33:30.842Z,67.89
2019-04-07T05:35:37.963Z,68.21
2019-04-07T05:37:44.788Z,68.15
2019-04-07T05:39:51.634Z,68.01
2019-04-07T05:41:59.079Z,68.40
2019-04-07T05:44:06.328Z,68.17
2019-04-07T05:46:13.850Z,68.66
2019-04-07T05:48:21.605Z,67.99
2019-04-07T05:50:28.832Z,68.20
2019-04-07T05:52:39.582Z,68.26
2019-04-07T05:54:45.061Z,68.03
2019-04-07T05:56:52.595Z,67.86
2019-04-07T05:58:59.321Z,68.48
2019-04-07T06:01:06.359Z,68.22
2019-04-07T06:03:13.200Z,67.40
2019-04-07T06:05:19.919Z,67.09
2019-04-07T06:07:30.304Z,66.69
2019-04-07T06:09:35.112Z,66.56
2019-04-07T06:11:41.929Z,65.41
2019-04-07T06:13:48.770Z,64.54
2019-04-07T06:15:55.700Z,64.41
2019-04-07T06:18:02.633Z,64.11
2019-04-07T06:20:14.257Z,64.17
2019-04-07T06:22:20.776Z,63.77
2019-04-07T06:24:31.669Z,63.55
2019-04-07T06:26:37.003Z,63.51
2019-04-07T06:28:46.682Z,63.71
2019-04-07T06:30:53.062Z,63.94
2019-04-07T06:33:00.667Z,63.54
2019-04-07T06:35:12.365Z,63.37
2019-04-07T06:37:17.838Z,63.37
2019-04-07T06:39:24.569Z,62.89
2019-04-07T06:41:34.461Z,62.60
2019-04-07T06:43:41.526Z,61.76
2019-04-07T06:46:00.346Z,61.07
2019-04-07T06:48:09.337Z,60.90
2019-04-07T06:50:45.456Z,59.35
2019-04-07T06:52:45.177Z,57.92
2019-04-07T06:54:55.693Z,58.48
2019-04-07T06:57:20.120Z,57.83
2019-04-07T06:59:29.276Z,56.53
2019-04-07T07:01:39.307Z,55.71
2019-04-07T07:03:46.381Z,55.99
2019-04-07T07:06:11.095Z,55.84
2019-04-07T07:08:22.458Z,56.03
2019-04-07T07:10:37.832Z,55.48
2019-04-07T07:12:47.108Z,54.98
2019-04-07T07:15:03.648Z,54.53
2019-04-07T07:17:14.926Z,54.65
2019-04-07T07:19:28.558Z,53.79
2019-04-07T07:21:44.589Z,53.37
2019-04-07T07:23:52.729Z,52.67
2019-04-07T07:26:02.691Z,52.35
2019-04-07T07:28:11.537Z,51.67
2019-04-07T07:33:57.118Z,51.72
2019-04-07T07:36:24.651Z,51.87
2019-04-07T07:38:32.734Z,51.39
2019-04-07T07:40:40.591Z,51.63
2019-04-07T07:42:50.947Z,51.31
2019-04-07T07:44:58.363Z,50.62
2019-04-07T07:47:06.972Z,50.14
2019-04-07T07:49:13.791Z,49.69
2019-04-07T07:51:20.492Z,49.89
2019-04-07T07:53:28.601Z,50.67
2019-04-07T07:55:37.611Z,49.43
2019-04-07T07:57:44.115Z,48.94
2019-04-07T07:59:50.950Z,47.83
2019-04-07T08:01:58.703Z,48.28
2019-04-07T08:04:08.698Z,47.95
2019-04-07T08:06:16.088Z,46.27
2019-04-07T08:08:23.428Z,47.63
2019-04-07T08:10:30.369Z,46.76
2019-04-07T08:12:37.220Z,46.46
2019-04-07T08:14:44.647Z,46.21
2019-04-07T08:16:53.118Z,45.37
2019-04-07T08:19:00.750Z,45.63
2019-04-07T08:21:08.706Z,45.15
2019-04-07T08:23:15.587Z,44.87
2019-04-07T08:25:24.588Z,44.83
2019-04-07T08:27:32.056Z,44.99
2019-04-07T08:29:39.816Z,44.16
2019-04-07T08:31:51.486Z,43.69
2019-04-07T08:33:55.941Z,43.61
2019-04-07T08:36:03.517Z,42.93
2019-04-07T08:38:11.000Z,42.95
2019-04-07T08:40:18.743Z,42.01
2019-04-07T08:42:26.984Z,42.06
2019-04-07T08:44:34.424Z,41.64
2019-04-07T08:46:43.146Z,41.13
2019-04-07T08:48:52.680Z,40.32
2019-04-07T08:51:00.491Z,39.54
2019-04-07T08:53:10.359Z,38.56
2019-04-07T08:55:15.254Z,37.42
2019-04-07T08:57:23.120Z,36.61
2019-04-07T08:59:31.393Z,35.90
2019-04-07T09:01:40.452Z,35.29
2019-04-07T09:03:48.568Z,34.95
2019-04-07T09:05:57.770Z,34.86
2019-04-07T09:08:06.354Z,34.58
2019-04-07T09:10:18.326Z,34.07
2019-04-07T09:12:26.879Z,33.84
2019-04-07T09:14:33.274Z,33.10
2019-04-07T09:16:44.713Z,32.02
2019-04-07T09:19:09.959Z,32.01
2019-04-07T09:21:20.442Z,31.94
2019-04-07T09:23:29.471Z,32.82
2019-04-07T09:25:40.026Z,32.65
2019-04-07T09:27:54.077Z,32.40
2019-04-07T09:30:07.804Z,32.16
2019-04-07T09:32:31.306Z,32.22
2019-04-07T09:34:41.383Z,32.04
2019-04-07T09:36:53.515Z,32.14
2019-04-07T09:39:03.842Z,31.58
2019-04-07T09:41:13.185Z,31.46
2019-04-07T09:43:19.947Z,31.79
2019-04-07T09:45:28.839Z,32.01
2019-04-07T09:47:53.474Z,31.98
2019-04-07T09:50:20.430Z,31.13
2019-04-07T09:52:36.052Z,30.92
2019-04-07T09:54:44.434Z,31.33
2019-04-07T09:57:10.738Z,31.89
2019-04-07T09:59:29.672Z,31.68
2019-04-07T10:01:50.839Z,31.92
2019-04-07T10:04:14.553Z,32.35
2019-04-07T10:06:39.098Z,32.51
2019-04-07T10:09:03.312Z,32.18
2019-04-07T10:11:12.885Z,32.26
2019-04-07T10:13:21.546Z,32.69
2019-04-07T10:15:40.365Z,32.76
2019-04-07T10:17:49.567Z,33.04
2019-04-07T10:20:03.020Z,33.23
2019-04-07T10:22:23.269Z,33.22
2019-04-07T10:24:34.555Z,33.26
2019-04-07T10:26:46.232Z,34.22
2019-04-07T10:29:04.415Z,34.34
2019-04-07T10:31:19.786Z,34.44
2019-04-07T10:33:30.417Z,34.74
2019-04-07T10:35:36.909Z,35.15
2019-04-07T10:37:51.038Z,35.17
2019-04-07T10:39:58.181Z,35.11
2019-04-07T10:42:16.819Z,35.07
2019-04-07T10:44:24.973Z,35.53
2019-04-07T10:46:31.527Z,35.91
2019-04-07T10:48:53.659Z,35.58
2019-04-07T10:51:12.111Z,35.27
2019-04-07T10:53:27.306Z,35.45
2019-04-07T10:55:52.285Z,35.83
2019-04-07T10:57:59.747Z,35.69
2019-04-07T11:00:11.085Z,35.29
2019-04-07T11:02:27.520Z,35.02
2019-04-07T11:04:35.076Z,35.06
2019-04-07T11:06:44.049Z,34.92
2019-04-07T11:09:01.053Z,34.88
2019-04-07T11:11:09.596Z,34.52
2019-04-07T11:13:28.990Z,34.81
2019-04-07T11:15:48.742Z,35.11
2019-04-07T11:18:11.297Z,34.75
2019-04-07T11:20:22.750Z,34.81
2019-04-07T11:22:49.015Z,33.83
2019-04-07T11:24:55.807Z,34.04
2019-04-07T11:27:17.050Z,33.81
2019-04-07T11:29:23.909Z,34.22
2019-04-07T11:31:32.319Z,33.75
2019-04-07T11:33:45.039Z,34.12
2019-04-07T11:35:53.345Z,34.23
2019-04-07T11:38:17.942Z,34.12
2019-04-07T11:40:24.680Z,34.21
2019-04-07T11:42:46.657Z,34.39
2019-04-07T11:45:03.094Z,34.42
2019-04-07T11:47:15.457Z,34.47
2019-04-07T11:49:25.160Z,34.06
2019-04-07T11:51:40.647Z,34.00
2019-04-07T11:54:05.261Z,33.86
2019-04-07T11:56:32.737Z,34.00
2019-04-07T11:58:47.632Z,33.87
2019-04-07T12:01:12.807Z,33.96
2019-04-07T12:03:19.201Z,34.41
2019-04-07T12:05:28.717Z,34.04
2019-04-07T12:07:56.540Z,33.96
2019-04-07T12:10:30.078Z,33.33
2019-04-07T12:12:54.952Z,33.35
2019-04-07T12:15:19.650Z,33.66
2019-04-07T12:17:43.833Z,33.46
2019-04-07T12:19:55.109Z,33.62
2019-04-07T12:22:11.255Z,33.77
2019-04-07T12:24:24.672Z,33.32
2019-04-07T12:26:31.480Z,33.71
2019-04-07T12:28:49.118Z,33.74
2019-04-07T12:31:12.797Z,33.78
2019-04-07T12:33:20.043Z,33.63
2019-04-07T12:35:32.424Z,33.60
2019-04-07T12:37:54.195Z,33.62
2019-04-07T12:40:09.182Z,33.75
2019-04-07T12:42:20.334Z,33.44
2019-04-07T12:44:29.003Z,33.63
2019-04-07T12:46:40.702Z,33.40
2019-04-07T12:48:47.954Z,33.63
2019-04-07T12:51:03.765Z,33.72
2019-04-07T12:53:25.081Z,33.63
2019-04-07T12:55:40.529Z,33.43
2019-04-07T12:57:56.573Z,33.24
2019-04-07T13:00:21.134Z,32.77
2019-04-07T13:02:28.406Z,32.94
2019-04-07T13:04:39.744Z,32.54
2019-04-07T13:06:48.057Z,33.00
2019-04-07T13:08:59.546Z,32.83
2019-04-07T13:11:31.232Z,32.60
2019-04-07T13:13:47.043Z,32.64
2019-04-07T13:15:58.234Z,33.07
2019-04-07T13:18:10.715Z,33.02
2019-04-07T13:20:31.140Z,33.10
2019-04-07T13:22:42.518Z,32.80
2019-04-07T13:25:00.165Z,32.65
2019-04-07T13:27:22.166Z,32.55
2019-04-07T13:29:38.723Z,32.65
2019-04-07T13:31:44.875Z,32.63
2019-04-07T13:33:59.583Z,32.62
2019-04-07T13:36:25.322Z,32.79
2019-04-07T13:38:33.924Z,33.32
2019-04-07T13:40:58.271Z,33.32
2019-04-07T13:43:16.493Z,33.55
2019-04-07T13:45:23.120Z,33.13
2019-04-07T13:47:33.002Z,33.07
2019-04-07T13:49:44.759Z,33.21
2019-04-07T13:52:00.348Z,32.97
2019-04-07T13:54:20.066Z,32.94
2019-04-07T13:56:50.665Z,33.10
2019-04-07T13:59:09.196Z,33.30
2019-04-07T14:01:32.507Z,33.06
2019-04-07T14:03:50.447Z,33.05
2019-04-07T14:06:14.932Z,33.12
2019-04-07T14:08:29.942Z,33.19
2019-04-07T14:10:51.405Z,33.39
2019-04-07T14:13:11.960Z,33.18
2019-04-07T14:15:20.461Z,33.62
2019-04-07T14:17:44.914Z,33.63
2019-04-07T14:19:54.090Z,33.56
2019-04-07T14:22:00.673Z,33.89
2019-04-07T14:24:13.154Z,33.31
2019-04-07T14:26:22.241Z,33.53
2019-04-07T14:28:44.290Z,33.16
2019-04-07T14:31:10.880Z,33.20
2019-04-07T14:33:28.674Z,33.47
2019-04-07T14:35:36.974Z,32.96
2019-04-07T14:37:49.540Z,33.31
2019-04-07T14:40:03.657Z,33.45
2019-04-07T14:42:18.713Z,33.77
2019-04-07T14:44:39.065Z,34.00
2019-04-07T14:46:51.288Z,33.48
2019-04-07T14:49:02.535Z,33.37
2019-04-07T14:51:11.209Z,33.77
2019-04-07T14:53:22.173Z,33.60
2019-04-07T14:55:37.957Z,33.73
2019-04-07T14:57:51.155Z,33.35
2019-04-07T15:00:00.037Z,33.56
2019-04-07T15:02:07.375Z,33.51
2019-04-07T15:04:18.184Z,33.78
2019-04-07T15:06:30.934Z,33.76
2019-04-07T15:08:46.266Z,33.86
2019-04-07T15:10:56.232Z,34.14
2019-04-07T15:13:05.336Z,34.04
2019-04-07T15:15:12.420Z,33.87
2019-04-07T15:17:19.330Z,33.80
2019-04-07T15:19:26.016Z,33.92
2019-04-07T15:21:34.684Z,33.82
2019-04-07T15:23:44.831Z,33.90
2019-04-07T15:25:52.756Z,33.93
2019-04-07T15:28:01.177Z,34.00
2019-04-07T15:30:15.292Z,34.19
2019-04-07T15:32:24.193Z,34.45
2019-04-07T15:34:34.262Z,34.61
2019-04-07T15:36:41.460Z,34.60
2019-04-07T15:38:48.603Z,34.49
2019-04-07T15:40:55.921Z,34.63
2019-04-07T15:43:05.734Z,34.71
2019-04-07T15:45:13.347Z,34.72
2019-04-07T15:47:21.137Z,34.84
2019-04-07T15:49:29.515Z,35.05
2019-04-07T15:51:36.507Z,35.23
2019-04-07T15:53:46.425Z,35.49
2019-04-07T15:56:01.128Z,35.70
2019-04-07T15:58:00.105Z,35.61
2019-04-07T16:00:11.201Z,35.87
2019-04-07T16:02:18.059Z,35.98
2019-04-07T16:04:28.265Z,35.88
2019-04-07T16:06:35.541Z,35.99
2019-04-07T16:08:42.331Z,36.09
2019-04-07T16:10:49.066Z,36.18
2019-04-07T16:12:58.962Z,36.24
2019-04-07T16:15:04.928Z,36.47
2019-04-07T16:17:12.203Z,36.79
2019-04-07T16:19:33.109Z,36.97
2019-04-07T16:21:29.756Z,37.21
2019-04-07T16:23:37.487Z,37.36
2019-04-07T16:25:44.402Z,37.61
2019-04-07T16:27:51.559Z,37.70
2019-04-07T16:29:58.243Z,37.87
2019-04-07T16:32:05.112Z,38.03
2019-04-07T16:34:11.876Z,38.27
2019-04-07T16:36:18.567Z,38.48
2019-04-07T16:38:28.016Z,38.37
2019-04-07T16:40:35.062Z,38.50
2019-04-07T16:42:53.834Z,38.69
2019-04-07T16:44:53.696Z,38.78
2019-04-07T16:47:04.029Z,38.94
2019-04-07T16:49:11.510Z,39.09
2019-04-07T16:51:18.869Z,39.00
2019-04-07T16:53:25.896Z,39.13
2019-04-07T16:55:41.428Z,39.46
2019-04-07T16:57:50.307Z,39.50
2019-04-07T17:00:00.410Z,39.81
2019-04-07T17:02:08.035Z,40.00
2019-04-07T17:04:15.825Z,40.12
2019-04-07T17:06:22.946Z,40.45
2019-04-07T17:08:30.048Z,40.70
2019-04-07T17:10:37.095Z,40.89
2019-04-07T17:12:44.034Z,41.08
2019-04-07T17:14:53.215Z,41.17
2019-04-07T17:17:00.326Z,41.41
2019-04-07T17:19:07.627Z,41.46
2019-04-07T17:21:19.087Z,41.69
2019-04-07T17:23:26.187Z,41.78
2019-04-07T17:25:34.590Z,41.97
2019-04-07T17:27:42.519Z,42.20
2019-04-07T17:29:54.086Z,42.59
2019-04-07T17:32:01.676Z,42.67
2019-04-07T17:34:10.885Z,42.92
2019-04-07T17:36:21.010Z,43.01
2019-04-07T17:38:44.327Z,43.23
2019-04-07T17:40:51.936Z,43.52
2019-04-07T17:43:02.929Z,43.83
2019-04-07T17:45:13.850Z,44.00
2019-04-07T17:47:23.444Z,44.37
2019-04-07T17:49:50.524Z,44.43
2019-04-07T17:52:11.077Z,44.73
2019-04-07T17:54:36.536Z,45.15
2019-04-07T17:57:04.055Z,45.57
2019-04-07T17:59:20.958Z,46.15
2019-04-07T18:01:33.375Z,46.57
2019-04-07T18:03:58.362Z,46.98
2019-04-07T18:06:10.090Z,47.04
2019-04-07T18:08:25.199Z,47.60
2019-04-07T18:10:32.445Z,47.88
2019-04-07T18:12:51.545Z,48.12
2019-04-07T18:15:17.882Z,48.41
2019-04-07T18:17:29.995Z,48.32
2019-04-07T18:19:54.785Z,48.38
2019-04-07T18:22:22.039Z,48.77
2019-04-07T18:24:37.779Z,49.14
2019-04-07T18:26:49.279Z,49.00
2019-04-07T18:29:05.861Z,48.96
2019-04-07T18:31:36.256Z,48.97
2019-04-07T18:34:02.477Z,48.82
2019-04-07T18:36:19.952Z,48.86
2019-04-07T18:38:34.260Z,48.94
2019-04-07T18:40:44.038Z,49.29
2019-04-07T18:43:02.744Z,49.30
2019-04-07T18:45:21.595Z,49.68
2019-04-07T18:47:44.619Z,49.92
2019-04-07T18:50:07.131Z,49.96
2019-04-07T18:52:26.871Z,50.49
2019-04-07T18:54:41.108Z,50.44
2019-04-07T18:56:55.802Z,50.93
2019-04-07T18:59:21.926Z,50.81
2019-04-07T19:01:42.681Z,50.96
2019-04-07T19:03:55.987Z,51.11
2019-04-07T19:06:20.651Z,51.66
2019-04-07T19:08:37.868Z,51.28
2019-04-07T19:11:12.240Z,51.39
2019-04-07T19:13:18.541Z,51.66
2019-04-07T19:15:40.798Z,51.78
2019-04-07T19:17:50.339Z,52.13
2019-04-07T19:20:17.227Z,52.15
2019-04-07T19:22:34.616Z,52.71
2019-04-07T19:24:59.174Z,52.76
2019-04-07T19:27:28.688Z,52.81
2019-04-07T19:29:33.773Z,53.68
2019-04-07T19:31:52.209Z,54.14
2019-04-07T19:34:07.043Z,54.46
2019-04-07T19:36:31.382Z,54.49
2019-04-07T19:38:41.258Z,54.83
2019-04-07T19:40:49.249Z,55.09
2019-04-07T19:43:10.704Z,55.39
2019-04-07T19:45:35.018Z,55.48
2019-04-07T19:47:50.455Z,55.76
2019-04-07T19:50:10.803Z,56.40
2019-04-07T19:52:25.086Z,56.47
2019-04-07T19:54:34.251Z,56.83
2019-04-07T19:56:42.361Z,57.32
2019-04-07T19:58:51.358Z,57.60
2019-04-07T20:01:06.321Z,57.78
2019-04-07T20:03:22.181Z,58.03
2019-04-07T20:05:32.208Z,58.18
2019-04-07T20:07:56.086Z,58.65
2019-04-07T20:10:11.041Z,59.05
2019-04-07T20:12:21.105Z,58.90
2019-04-07T20:14:55.539Z,59.18
2019-04-07T20:17:02.773Z,58.72
2019-04-07T20:19:12.953Z,59.00
2019-04-07T20:21:40.131Z,59.11
2019-04-07T20:23:52.520Z,59.34
2019-04-07T20:26:18.593Z,59.66
2019-04-07T20:28:33.224Z,59.93
2019-04-07T20:30:49.629Z,59.86
2019-04-07T20:33:02.885Z,60.42
2019-04-07T20:35:15.949Z,60.11
2019-04-07T20:37:27.907Z,60.27
2019-04-07T20:39:56.722Z,60.53
2019-04-07T20:42:05.161Z,60.51
2019-04-07T20:44:19.320Z,60.72
2019-04-07T20:46:41.713Z,60.73
2019-04-07T20:48:49.642Z,61.06
2019-04-07T20:51:05.134Z,61.30
2019-04-07T20:53:29.872Z,61.32
2019-04-07T20:55:53.987Z,61.08
2019-04-07T20:58:24.305Z,61.38
2019-04-07T21:00:57.680Z,61.70
2019-04-07T21:03:22.084Z,61.62
2019-04-07T21:05:37.824Z,61.77
2019-04-07T21:07:44.956Z,61.60
2019-04-07T21:09:54.303Z,61.73
2019-04-07T21:12:03.528Z,61.91
2019-04-07T21:14:11.833Z,62.12
2019-04-07T21:16:33.344Z,62.26
2019-04-07T21:18:59.085Z,62.46
2019-04-07T21:21:12.293Z,62.73
2019-04-07T21:23:21.655Z,63.17
2019-04-07T21:25:33.829Z,63.54
2019-04-07T21:27:49.054Z,63.80
2019-04-07T21:30:00.608Z,64.27
2019-04-07T21:32:09.811Z,64.68
2019-04-07T21:34:34.739Z,65.03
2019-04-07T21:36:49.035Z,65.16
2019-04-07T21:39:14.268Z,65.60
2019-04-07T21:41:30.703Z,65.80
2019-04-07T21:43:43.407Z,66.09
2019-04-07T21:45:54.359Z,66.52
2019-04-07T21:48:10.368Z,66.71
2019-04-07T21:50:28.197Z,66.62
2019-04-07T21:52:54.484Z,66.40
2019-04-07T21:55:01.822Z,66.50
2019-04-07T21:57:26.768Z,66.27
2019-04-07T21:59:33.684Z,66.15
2019-04-07T22:01:51.296Z,65.96
2019-04-07T22:04:06.835Z,66.00
2019-04-07T22:06:17.986Z,65.95
2019-04-07T22:08:26.381Z,66.01
2019-04-07T22:10:34.005Z,65.91
2019-04-07T22:12:40.996Z,65.79
2019-04-07T22:14:47.898Z,66.03
2019-04-07T22:16:54.782Z,66.02
2019-04-07T22:19:02.686Z,66.19
2019-04-07T22:21:09.752Z,66.34
2019-04-07T22:23:16.738Z,65.94
2019-04-07T22:25:36.175Z,65.82
2019-04-07T22:27:44.142Z,65.54
2019-04-07T22:29:51.914Z,65.57
2019-04-07T22:31:59.811Z,65.57
2019-04-07T22:34:06.953Z,65.68
2019-04-07T22:36:14.631Z,65.68
2019-04-07T22:38:23.723Z,65.71
2019-04-07T22:40:34.222Z,65.73
2019-04-07T22:42:39.260Z,65.72
2019-04-07T22:44:46.041Z,65.67
2019-04-07T22:46:52.729Z,65.77
2019-04-07T22:48:59.708Z,65.96
2019-04-07T22:51:09.904Z,65.90
2019-04-07T22:53:15.155Z,65.96
2019-04-07T22:55:22.666Z,66.17
2019-04-07T22:57:31.349Z,66.34
2019-04-07T22:59:38.114Z,66.43
2019-04-07T23:01:45.850Z,66.51
2019-04-07T23:03:52.583Z,66.41
2019-04-07T23:06:00.988Z,66.57
2019-04-07T23:08:08.278Z,66.79
2019-04-07T23:10:15.992Z,66.93
2019-04-07T23:12:22.981Z,67.09
2019-04-07T23:14:29.790Z,67.19
2019-04-07T23:16:36.507Z,67.32
2019-04-07T23:18:43.274Z,67.42
2019-04-07T23:20:49.981Z,67.56
2019-04-07T23:22:56.765Z,67.81
2019-04-07T23:25:04.409Z,67.91
2019-04-07T23:27:12.460Z,67.92
2019-04-07T23:29:19.834Z,68.09
2019-04-07T23:31:27.869Z,68.35
2019-04-07T23:33:34.892Z,68.36
2019-04-07T23:35:41.585Z,68.22
2019-04-07T23:37:48.868Z,68.04
2019-04-07T23:39:55.675Z,68.19
2019-04-07T23:42:02.801Z,68.38
2019-04-07T23:44:09.797Z,68.54
2019-04-07T23:46:22.864Z,68.69
2019-04-07T23:48:25.043Z,68.76
2019-04-07T23:50:31.755Z,68.82
2019-04-07T23:52:39.063Z,68.97
2019-04-07T23:54:46.146Z,69.14
2019-04-07T23:56:54.004Z,69.35
2019-04-07T23:59:01.255Z,69.36
